2016 Cux-Wetter.de -Die Nutzung der Wetterdaten nur mit ausdrcklicher Genehmigung
Wetterdaten: Woche 13.04.20 - 19.04.20 (KW16)
Datum Zeit Temp. A. Feuchte A. Luftdruck Regen Wind Richtung Sonnenschein Solar Taupunkt Windchill Windben
13.04.2020 00:00 8,8 C 80 % 1012,5 hPa 0,0 l/m 12,3 km/h (2 Bft) N-NW 0,00 h 0 W/m 5,4 C 5,0 C 23,6 km/h (4 Bft)
13.04.2020 01:00 8,7 C 83 % 1012,9 hPa 0,0 l/m 15,3 km/h (3 Bft) N-NW 0,00 h 0 W/m 5,9 C 3,5 C 26,1 km/h (4 Bft)
13.04.2020 02:00 8,2 C 81 % 1013,3 hPa 0,0 l/m 18,4 km/h (3 Bft) N 0,00 h 0 W/m 5,1 C 1,6 C 32,3 km/h (5 Bft)
13.04.2020 03:00 7,5 C 75 % 1014,0 hPa 0,0 l/m 19,5 km/h (3 Bft) N-NW 0,00 h 0 W/m 3,4 C 0,3 C 34,4 km/h (5 Bft)
13.04.2020 04:00 6,6 C 69 % 1014,7 hPa 0,0 l/m 21,4 km/h (4 Bft) N-NW 0,00 h 0 W/m 1,2 C -1,6 C 39,3 km/h (6 Bft)
13.04.2020 05:00 6,3 C 66 % 1015,2 hPa 0,0 l/m 23,1 km/h (4 Bft) N-NW 0,00 h 0 W/m 0,4 C -2,5 C 40,6 km/h (6 Bft)
13.04.2020 06:00 6,4 C 65 % 1015,5 hPa 0,0 l/m 21,6 km/h (4 Bft) N 0,00 h 6 W/m 0,2 C -1,9 C 38,7 km/h (6 Bft)
13.04.2020 07:00 6,3 C 62 % 1016,1 hPa 0,0 l/m 22,4 km/h (4 Bft) N-NW 0,00 h 37 W/m -0,5 C -2,3 C 39,0 km/h (6 Bft)
13.04.2020 08:00 6,6 C 61 % 1016,7 hPa 0,0 l/m 21,2 km/h (4 Bft) N-NW 0,00 h 68 W/m -0,3 C -1,5 C 37,2 km/h (5 Bft)
13.04.2020 09:00 6,6 C 61 % 1017,4 hPa 0,0 l/m 23,4 km/h (4 Bft) N-NW 0,00 h 131 W/m -0,5 C -2,3 C 39,5 km/h (6 Bft)
13.04.2020 10:00 7,2 C 58 % 1018,1 hPa 0,0 l/m 24,4 km/h (4 Bft) N-NW 0,25 h 297 W/m -0,4 C -1,7 C 40,7 km/h (6 Bft)
13.04.2020 11:00 8,2 C 53 % 1018,8 hPa 0,0 l/m 23,0 km/h (4 Bft) N-NW 0,70 h 548 W/m -0,8 C -0,1 C 37,0 km/h (5 Bft)
13.04.2020 12:00 9,4 C 53 % 1019,1 hPa 0,0 l/m 21,7 km/h (4 Bft) N 0,80 h 596 W/m 0,2 C 2,0 C 35,8 km/h (5 Bft)
13.04.2020 13:00 9,5 C 56 % 1019,4 hPa 0,0 l/m 22,4 km/h (4 Bft) N 0,80 h 668 W/m 1,1 C 2,0 C 36,8 km/h (5 Bft)
13.04.2020 14:00 10,1 C 55 % 1019,6 hPa 0,0 l/m 24,9 km/h (4 Bft) NW 1,00 h 668 W/m 1,6 C 2,0 C 41,2 km/h (6 Bft)
13.04.2020 15:00 9,9 C 54 % 1019,8 hPa 0,0 l/m 24,9 km/h (4 Bft) N-NW 1,00 h 645 W/m 1,1 C 1,8 C 41,4 km/h (6 Bft)
13.04.2020 16:00 9,3 C 58 % 1020,0 hPa 0,0 l/m 23,1 km/h (4 Bft) N 0,95 h 530 W/m 1,4 C 1,4 C 38,9 km/h (6 Bft)
13.04.2020 17:00 8,4 C 60 % 1020,0 hPa 0,0 l/m 22,5 km/h (4 Bft) NW 0,65 h 303 W/m 1,0 C 0,4 C 37,4 km/h (5 Bft)
13.04.2020 18:00 7,6 C 61 % 1019,9 hPa 0,0 l/m 22,3 km/h (4 Bft) N 0,60 h 179 W/m 0,6 C -0,6 C 37,4 km/h (5 Bft)
13.04.2020 19:00 6,7 C 65 % 1019,3 hPa 0,0 l/m 22,3 km/h (4 Bft) N-NW 0,05 h 32 W/m 0,6 C -1,7 C 38,3 km/h (6 Bft)
13.04.2020 20:00 6,4 C 65 % 1019,3 hPa 0,0 l/m 24,4 km/h (4 Bft) N-NW 0,00 h 7 W/m 0,3 C -2,8 C 39,7 km/h (6 Bft)
13.04.2020 21:00 6,3 C 65 % 1019,4 hPa 0,0 l/m 21,4 km/h (4 Bft) N-NW 0,00 h 0 W/m 0,2 C -1,9 C 36,9 km/h (5 Bft)
13.04.2020 22:00 6,1 C 68 % 1019,5 hPa 0,0 l/m 23,9 km/h (4 Bft) N 0,00 h 0 W/m 0,6 C -3,0 C 40,9 km/h (6 Bft)
13.04.2020 23:00 5,9 C 67 % 1019,6 hPa 0,0 l/m 22,6 km/h (4 Bft) N 0,00 h 0 W/m 0,3 C -2,9 C 38,1 km/h (6 Bft)
14.04.2020 00:00 5,7 C 72 % 1019,8 hPa 0,0 l/m 13,6 km/h (3 Bft) N-NW 0,00 h 0 W/m 0,9 C 0,8 C 26,4 km/h (4 Bft)
14.04.2020 01:00 5,7 C 70 % 1020,0 hPa 0,0 l/m 11,0 km/h (2 Bft) N-NW 0,00 h 0 W/m 0,7 C 2,4 C 21,7 km/h (4 Bft)
14.04.2020 02:00 5,7 C 71 % 1020,2 hPa 0,0 l/m 8,2 km/h (2 Bft) N-NW 0,00 h 0 W/m 0,8 C 4,2 C 19,2 km/h (3 Bft)
14.04.2020 03:00 5,5 C 73 % 1020,3 hPa 0,0 l/m 4,0 km/h (1 Bft) N 0,00 h 0 W/m 0,9 C 5,5 C 8,5 km/h (2 Bft)
14.04.2020 04:00 5,3 C 73 % 1020,7 hPa 0,0 l/m 10,4 km/h (2 Bft) NW 0,00 h 0 W/m 0,9 C 2,1 C 19,0 km/h (3 Bft)
14.04.2020 05:00 5,4 C 74 % 1021,0 hPa 0,0 l/m 11,9 km/h (2 Bft) N-NW 0,00 h 0 W/m 1,1 C 1,3 C 21,0 km/h (4 Bft)
14.04.2020 06:00 5,3 C 74 % 1021,3 hPa 0,0 l/m 9,2 km/h (2 Bft) NW 0,00 h 7 W/m 1,1 C 2,9 C 18,3 km/h (3 Bft)
14.04.2020 07:00 5,5 C 73 % 1021,7 hPa 0,0 l/m 8,7 km/h (2 Bft) N-NW 0,00 h 38 W/m 1,1 C 3,4 C 16,5 km/h (3 Bft)
14.04.2020 08:00 6,1 C 72 % 1022,0 hPa 0,0 l/m 11,2 km/h (2 Bft) NW 0,00 h 79 W/m 1,5 C 2,7 C 20,0 km/h (4 Bft)
14.04.2020 09:00 6,9 C 69 % 1022,5 hPa 0,0 l/m 14,1 km/h (3 Bft) NW 0,25 h 179 W/m 1,7 C 1,9 C 24,1 km/h (4 Bft)
14.04.2020 10:00 7,6 C 66 % 1022,8 hPa 0,0 l/m 12,8 km/h (3 Bft) NW 0,10 h 214 W/m 1,7 C 3,4 C 23,1 km/h (4 Bft)
14.04.2020 11:00 8,1 C 61 % 1023,0 hPa 0,0 l/m 14,1 km/h (3 Bft) NW 0,20 h 302 W/m 1,2 C 3,4 C 24,1 km/h (4 Bft)
14.04.2020 12:00 8,6 C 63 % 1023,5 hPa 0,0 l/m 12,6 km/h (2 Bft) NW 0,40 h 364 W/m 2,0 C 4,8 C 22,4 km/h (4 Bft)
14.04.2020 13:00 10,0 C 60 % 1023,4 hPa 0,0 l/m 13,1 km/h (3 Bft) NW 0,60 h 424 W/m 2,5 C 6,0 C 24,4 km/h (4 Bft)
14.04.2020 14:00 9,1 C 66 % 1023,6 hPa 0,0 l/m 12,7 km/h (3 Bft) W-NW 0,05 h 225 W/m 3,1 C 5,2 C 23,2 km/h (4 Bft)
14.04.2020 15:00 9,0 C 67 % 1023,4 hPa 0,0 l/m 13,0 km/h (3 Bft) NW 0,35 h 384 W/m 3,1 C 4,9 C 25,0 km/h (4 Bft)
14.04.2020 16:00 9,5 C 64 % 1023,3 hPa 0,0 l/m 13,3 km/h (3 Bft) NW 0,50 h 380 W/m 3,1 C 5,4 C 24,2 km/h (4 Bft)
14.04.2020 17:00 8,7 C 69 % 1023,4 hPa 0,0 l/m 11,3 km/h (2 Bft) NW 0,10 h 164 W/m 3,2 C 5,5 C 22,3 km/h (4 Bft)
14.04.2020 18:00 8,2 C 69 % 1023,2 hPa 0,0 l/m 11,6 km/h (2 Bft) NW 0,20 h 128 W/m 2,9 C 4,7 C 21,5 km/h (4 Bft)
14.04.2020 19:00 7,8 C 69 % 1023,2 hPa 0,0 l/m 11,0 km/h (2 Bft) W 0,00 h 36 W/m 2,4 C 4,6 C 22,6 km/h (4 Bft)
14.04.2020 20:00 7,3 C 72 % 1023,1 hPa 0,0 l/m 11,0 km/h (2 Bft) W-NW 0,00 h 9 W/m 2,6 C 4,0 C 20,9 km/h (4 Bft)
14.04.2020 21:00 7,1 C 74 % 1023,0 hPa 0,0 l/m 12,1 km/h (2 Bft) W 0,00 h 0 W/m 2,8 C 3,2 C 22,3 km/h (4 Bft)
14.04.2020 22:00 6,9 C 76 % 1023,1 hPa 0,0 l/m 12,6 km/h (3 Bft) W 0,00 h 0 W/m 2,9 C 2,6 C 23,6 km/h (4 Bft)
14.04.2020 23:00 6,8 C 77 % 1022,9 hPa 0,0 l/m 11,4 km/h (2 Bft) W 0,00 h 0 W/m 3,0 C 3,2 C 21,1 km/h (4 Bft)
15.04.2020 00:00 6,8 C 78 % 1022,5 hPa 0,0 l/m 11,8 km/h (2 Bft) W 0,00 h 0 W/m 3,2 C 2,9 C 20,7 km/h (4 Bft)
15.04.2020 01:00 6,7 C 78 % 1022,3 hPa 0,0 l/m 13,6 km/h (3 Bft) W 0,00 h 0 W/m 3,1 C 1,8 C 24,3 km/h (4 Bft)
15.04.2020 02:00 6,6 C 79 % 1022,0 hPa 0,0 l/m 13,5 km/h (3 Bft) W 0,00 h 0 W/m 3,2 C 1,9 C 24,3 km/h (4 Bft)
15.04.2020 03:00 6,7 C 80 % 1021,7 hPa 0,0 l/m 13,6 km/h (3 Bft) W 0,00 h 0 W/m 3,5 C 1,9 C 23,5 km/h (4 Bft)
15.04.2020 04:00 6,8 C 80 % 1021,5 hPa 0,0 l/m 15,3 km/h (3 Bft) W 0,00 h 0 W/m 3,7 C 1,2 C 27,0 km/h (4 Bft)
15.04.2020 05:00 6,9 C 81 % 1021,0 hPa 0,0 l/m 14,2 km/h (3 Bft) W 0,00 h 0 W/m 3,8 C 1,8 C 25,0 km/h (4 Bft)
15.04.2020 06:00 6,9 C 81 % 1020,9 hPa 0,0 l/m 14,1 km/h (3 Bft) W 0,00 h 7 W/m 3,9 C 1,8 C 24,2 km/h (4 Bft)
15.04.2020 07:00 7,0 C 83 % 1021,1 hPa 0,0 l/m 13,8 km/h (3 Bft) W 0,00 h 28 W/m 4,2 C 2,1 C 24,2 km/h (4 Bft)
15.04.2020 08:00 7,6 C 83 % 1021,3 hPa 0,0 l/m 16,5 km/h (3 Bft) W 0,00 h 65 W/m 4,9 C 1,6 C 26,9 km/h (4 Bft)
15.04.2020 09:00 8,3 C 83 % 1021,5 hPa 0,0 l/m 16,3 km/h (3 Bft) W-SW 0,40 h 211 W/m 5,5 C 2,5 C 27,4 km/h (5 Bft)
15.04.2020 10:00 9,8 C 78 % 1021,9 hPa 0,0 l/m 17,8 km/h (3 Bft) W 1,00 h 483 W/m 6,2 C 3,8 C 30,2 km/h (5 Bft)
15.04.2020 11:00 10,7 C 75 % 1022,1 hPa 0,0 l/m 18,0 km/h (3 Bft) W 1,00 h 598 W/m 6,4 C 4,9 C 29,9 km/h (5 Bft)
15.04.2020 12:00 11,6 C 72 % 1022,0 hPa 0,0 l/m 17,2 km/h (3 Bft) W 1,00 h 625 W/m 6,8 C 6,3 C 30,3 km/h (5 Bft)
15.04.2020 13:00 12,4 C 71 % 1021,5 hPa 0,0 l/m 16,1 km/h (3 Bft) W 1,00 h 734 W/m 7,3 C 7,6 C 26,6 km/h (4 Bft)
15.04.2020 14:00 12,8 C 71 % 1021,1 hPa 0,0 l/m 15,0 km/h (3 Bft) W 1,00 h 658 W/m 7,7 C 8,6 C 25,8 km/h (4 Bft)
15.04.2020 15:00 12,9 C 70 % 1020,8 hPa 0,0 l/m 15,6 km/h (3 Bft) W 1,00 h 633 W/m 7,5 C 8,5 C 27,2 km/h (5 Bft)
15.04.2020 16:00 12,7 C 68 % 1020,5 hPa 0,0 l/m 15,6 km/h (3 Bft) W 1,00 h 528 W/m 6,9 C 8,2 C 27,6 km/h (5 Bft)
15.04.2020 17:00 12,4 C 66 % 1020,0 hPa 0,0 l/m 14,2 km/h (3 Bft) W-SW 1,00 h 393 W/m 6,3 C 8,4 C 23,8 km/h (4 Bft)
15.04.2020 18:00 12,0 C 68 % 1019,7 hPa 0,0 l/m 14,4 km/h (3 Bft) W 0,85 h 215 W/m 6,2 C 7,8 C 23,9 km/h (4 Bft)
15.04.2020 19:00 10,8 C 71 % 1019,3 hPa 0,0 l/m 11,9 km/h (2 Bft) W 0,00 h 23 W/m 5,8 C 7,5 C 20,2 km/h (4 Bft)
15.04.2020 20:00 9,5 C 77 % 1019,0 hPa 0,0 l/m 9,4 km/h (2 Bft) W 0,00 h 9 W/m 5,6 C 7,5 C 16,8 km/h (3 Bft)
15.04.2020 21:00 8,9 C 79 % 1018,9 hPa 0,0 l/m 10,5 km/h (2 Bft) W-SW 0,00 h 0 W/m 5,4 C 6,2 C 18,0 km/h (3 Bft)
15.04.2020 22:00 8,9 C 80 % 1018,6 hPa 0,0 l/m 10,5 km/h (2 Bft) W 0,00 h 0 W/m 5,5 C 6,1 C 18,5 km/h (3 Bft)
15.04.2020 23:00 8,6 C 81 % 1018,4 hPa 0,0 l/m 9,7 km/h (2 Bft) W 0,00 h 0 W/m 5,6 C 6,3 C 18,1 km/h (3 Bft)
16.04.2020 00:00 8,3 C 83 % 1018,2 hPa 0,0 l/m 6,4 km/h (2 Bft) W 0,00 h 0 W/m 5,6 C 7,9 C 13,1 km/h (3 Bft)
16.04.2020 01:00 7,7 C 86 % 1017,9 hPa 0,0 l/m 6,9 km/h (2 Bft) W 0,00 h 0 W/m 5,5 C 7,0 C 13,3 km/h (3 Bft)
16.04.2020 02:00 7,4 C 88 % 1017,6 hPa 0,0 l/m 7,9 km/h (2 Bft) W 0,00 h 0 W/m 5,5 C 6,2 C 14,8 km/h (3 Bft)
16.04.2020 03:00 7,3 C 88 % 1017,2 hPa 0,0 l/m 7,1 km/h (2 Bft) W 0,00 h 0 W/m 5,4 C 6,5 C 14,3 km/h (3 Bft)
16.04.2020 04:00 7,0 C 88 % 1017,0 hPa 0,0 l/m 5,0 km/h (1 Bft) W 0,00 h 0 W/m 5,2 C 7,0 C 11,6 km/h (2 Bft)
16.04.2020 05:00 6,9 C 89 % 1016,9 hPa 0,0 l/m 7,0 km/h (2 Bft) NW 0,00 h 0 W/m 5,2 C 6,1 C 13,3 km/h (3 Bft)
16.04.2020 06:00 7,0 C 89 % 1016,9 hPa 0,0 l/m 5,9 km/h (2 Bft) NW 0,00 h 11 W/m 5,4 C 6,8 C 10,9 km/h (2 Bft)
16.04.2020 07:00 7,2 C 90 % 1017,4 hPa 0,0 l/m 5,3 km/h (1 Bft) NW 0,00 h 32 W/m 5,7 C 7,1 C 10,3 km/h (2 Bft)
16.04.2020 08:00 7,8 C 91 % 1017,3 hPa 0,0 l/m 3,3 km/h (1 Bft) NW 0,00 h 82 W/m 6,3 C 7,8 C 6,9 km/h (2 Bft)
16.04.2020 09:00 8,8 C 90 % 1017,1 hPa 0,0 l/m 4,8 km/h (1 Bft) NW 0,00 h 197 W/m 7,4 C 8,8 C 7,8 km/h (2 Bft)
16.04.2020 10:00 10,3 C 86 % 1017,1 hPa 0,0 l/m 7,0 km/h (2 Bft) W-SW 0,35 h 297 W/m 8,1 C 9,7 C 12,3 km/h (2 Bft)
16.04.2020 11:00 12,4 C 78 % 1017,3 hPa 0,0 l/m 6,4 km/h (2 Bft) W 1,00 h 597 W/m 8,6 C 12,1 C 12,3 km/h (2 Bft)
16.04.2020 12:00 14,1 C 68 % 1017,5 hPa 0,0 l/m 9,0 km/h (2 Bft) NW 1,00 h 598 W/m 8,3 C 12,7 C 17,4 km/h (3 Bft)
16.04.2020 13:00 14,5 C 67 % 1017,2 hPa 0,0 l/m 9,4 km/h (2 Bft) NW 1,00 h 701 W/m 8,4 C 12,9 C 18,3 km/h (3 Bft)
16.04.2020 14:00 14,4 C 69 % 1017,0 hPa 0,0 l/m 10,3 km/h (2 Bft) N-NW 1,00 h 664 W/m 8,8 C 12,3 C 18,0 km/h (3 Bft)
16.04.2020 15:00 14,0 C 71 % 1016,7 hPa 0,0 l/m 10,2 km/h (2 Bft) N-NW 1,00 h 567 W/m 8,9 C 12,0 C 18,3 km/h (3 Bft)
16.04.2020 16:00 13,6 C 72 % 1016,4 hPa 0,0 l/m 10,7 km/h (2 Bft) N-NW 1,00 h 469 W/m 8,8 C 11,3 C 19,1 km/h (3 Bft)
16.04.2020 17:00 12,8 C 70 % 1016,5 hPa 0,0 l/m 11,4 km/h (2 Bft) NW 1,00 h 356 W/m 7,5 C 10,1 C 19,5 km/h (3 Bft)
16.04.2020 18:00 11,8 C 70 % 1016,7 hPa 0,0 l/m 11,9 km/h (2 Bft) NW 0,45 h 156 W/m 6,6 C 8,6 C 21,1 km/h (4 Bft)
16.04.2020 19:00 10,2 C 73 % 1016,7 hPa 0,0 l/m 11,9 km/h (2 Bft) N-NW 0,00 h 50 W/m 5,6 C 6,8 C 21,5 km/h (4 Bft)
16.04.2020 20:00 9,3 C 76 % 1016,9 hPa 0,0 l/m 11,4 km/h (2 Bft) NW 0,05 h 13 W/m 5,2 C 6,1 C 20,3 km/h (4 Bft)
16.04.2020 21:00 8,6 C 80 % 1017,1 hPa 0,0 l/m 11,9 km/h (2 Bft) NW 0,00 h 0 W/m 5,3 C 4,9 C 22,4 km/h (4 Bft)
16.04.2020 22:00 8,3 C 82 % 1017,2 hPa 0,0 l/m 10,7 km/h (2 Bft) N-NW 0,00 h 0 W/m 5,4 C 5,4 C 19,9 km/h (4 Bft)
16.04.2020 23:00 8,1 C 83 % 1017,4 hPa 0,0 l/m 8,7 km/h (2 Bft) N-NW 0,00 h 0 W/m 5,4 C 6,4 C 17,9 km/h (3 Bft)
17.04.2020 00:00 7,8 C 83 % 1017,5 hPa 0,0 l/m 7,7 km/h (2 Bft) N 0,00 h 0 W/m 5,1 C 6,8 C 17,7 km/h (3 Bft)
17.04.2020 01:00 7,4 C 83 % 1017,6 hPa 0,0 l/m 6,3 km/h (2 Bft) N 0,00 h 0 W/m 4,7 C 7,1 C 14,2 km/h (3 Bft)
17.04.2020 02:00 7,1 C 83 % 1017,7 hPa 0,0 l/m 4,9 km/h (1 Bft) N-NW 0,00 h 0 W/m 4,4 C 7,0 C 11,2 km/h (2 Bft)
17.04.2020 03:00 6,6 C 82 % 1017,7 hPa 0,0 l/m 3,8 km/h (1 Bft) N-NW 0,00 h 0 W/m 3,7 C 6,6 C 8,3 km/h (2 Bft)
17.04.2020 04:00 5,9 C 83 % 1018,0 hPa 0,0 l/m 2,8 km/h (1 Bft) N-NW 0,00 h 0 W/m 3,3 C 5,9 C 6,3 km/h (2 Bft)
17.04.2020 05:00 5,5 C 84 % 1018,0 hPa 0,0 l/m 2,9 km/h (1 Bft) N-NW 0,00 h 0 W/m 3,0 C 5,5 C 7,2 km/h (2 Bft)
17.04.2020 06:00 5,2 C 86 % 1018,1 hPa 0,0 l/m 2,4 km/h (1 Bft) N-NW 0,25 h 18 W/m 3,0 C 5,2 C 5,6 km/h (2 Bft)
17.04.2020 07:00 5,6 C 87 % 1018,4 hPa 0,0 l/m 2,4 km/h (1 Bft) N-NW 0,05 h 66 W/m 3,6 C 5,6 C 5,7 km/h (2 Bft)
17.04.2020 08:00 7,1 C 85 % 1018,8 hPa 0,0 l/m 4,1 km/h (1 Bft) N-NW 0,00 h 126 W/m 4,7 C 7,1 C 8,7 km/h (2 Bft)
17.04.2020 09:00 8,4 C 76 % 1018,8 hPa 0,0 l/m 6,6 km/h (2 Bft) NW 0,25 h 236 W/m 4,5 C 7,9 C 12,8 km/h (3 Bft)
17.04.2020 10:00 9,3 C 71 % 1018,8 hPa 0,0 l/m 5,4 km/h (1 Bft) NW 0,35 h 301 W/m 4,3 C 8,9 C 10,7 km/h (2 Bft)
17.04.2020 11:00 10,1 C 68 % 1018,9 hPa 0,0 l/m 5,0 km/h (1 Bft) NW 0,65 h 379 W/m 4,4 C 9,9 C 10,1 km/h (2 Bft)
17.04.2020 12:00 11,3 C 64 % 1019,0 hPa 0,0 l/m 4,6 km/h (1 Bft) N-NW 0,95 h 669 W/m 4,7 C 11,1 C 9,7 km/h (2 Bft)
17.04.2020 13:00 12,1 C 61 % 1018,8 hPa 0,0 l/m 5,7 km/h (2 Bft) N-NW 0,90 h 703 W/m 4,9 C 11,9 C 11,3 km/h (2 Bft)
17.04.2020 14:00 12,7 C 61 % 1018,4 hPa 0,0 l/m 5,6 km/h (2 Bft) NW 1,00 h 695 W/m 5,3 C 12,4 C 11,8 km/h (2 Bft)
17.04.2020 15:00 13,0 C 61 % 1018,1 hPa 0,0 l/m 6,2 km/h (2 Bft) NW 1,00 h 658 W/m 5,8 C 12,6 C 12,6 km/h (3 Bft)
17.04.2020 16:00 13,0 C 62 % 1017,6 hPa 0,0 l/m 6,1 km/h (2 Bft) NW 1,00 h 544 W/m 6,0 C 12,7 C 12,6 km/h (2 Bft)
17.04.2020 17:00 12,7 C 64 % 1017,3 hPa 0,0 l/m 6,3 km/h (2 Bft) N-NW 1,00 h 396 W/m 6,1 C 12,3 C 13,7 km/h (3 Bft)
17.04.2020 18:00 11,8 C 68 % 1017,4 hPa 0,0 l/m 7,7 km/h (2 Bft) N-NW 0,80 h 206 W/m 6,1 C 11,0 C 15,6 km/h (3 Bft)
17.04.2020 19:00 10,3 C 74 % 1017,3 hPa 0,0 l/m 5,5 km/h (2 Bft) N-NW 0,00 h 27 W/m 5,8 C 10,2 C 13,4 km/h (3 Bft)
17.04.2020 20:00 9,0 C 80 % 1017,3 hPa 0,0 l/m 5,1 km/h (1 Bft) N 0,00 h 9 W/m 5,7 C 9,0 C 11,8 km/h (2 Bft)
17.04.2020 21:00 8,3 C 85 % 1017,4 hPa 0,0 l/m 3,9 km/h (1 Bft) N-NW 0,00 h 0 W/m 5,9 C 8,3 C 8,8 km/h (2 Bft)
17.04.2020 22:00 7,9 C 86 % 1017,5 hPa 0,0 l/m 1,3 km/h (1 Bft) N 0,00 h 0 W/m 5,7 C 7,9 C 2,9 km/h (1 Bft)
17.04.2020 23:00 7,1 C 87 % 1017,5 hPa 0,0 l/m 1,9 km/h (1 Bft) NO 0,00 h 0 W/m 5,1 C 7,1 C 5,9 km/h (2 Bft)
18.04.2020 00:00 6,4 C 86 % 1017,6 hPa 0,0 l/m 3,2 km/h (1 Bft) O-SO 0,00 h 0 W/m 4,2 C 6,4 C 8,7 km/h (2 Bft)
18.04.2020 01:00 6,0 C 84 % 1017,8 hPa 0,0 l/m 3,0 km/h (1 Bft) O-NO 0,00 h 0 W/m 3,5 C 6,0 C 7,1 km/h (2 Bft)
18.04.2020 02:00 5,6 C 83 % 1017,8 hPa 0,0 l/m 2,6 km/h (1 Bft) O-NO 0,00 h 0 W/m 2,8 C 5,6 C 7,0 km/h (2 Bft)
18.04.2020 03:00 5,2 C 83 % 1017,6 hPa 0,0 l/m 3,4 km/h (1 Bft) O-NO 0,00 h 0 W/m 2,5 C 5,2 C 7,8 km/h (2 Bft)
18.04.2020 04:00 4,8 C 84 % 1017,8 hPa 0,0 l/m 2,0 km/h (1 Bft) N-NO 0,00 h 0 W/m 2,3 C 4,8 C 5,3 km/h (1 Bft)
18.04.2020 05:00 4,5 C 85 % 1017,8 hPa 0,0 l/m 3,2 km/h (1 Bft) NO 0,00 h 0 W/m 2,2 C 4,5 C 7,4 km/h (2 Bft)
18.04.2020 06:00 4,3 C 87 % 1018,1 hPa 0,0 l/m 3,0 km/h (1 Bft) NO 0,00 h 10 W/m 2,4 C 4,3 C 5,9 km/h (2 Bft)
18.04.2020 07:00 4,9 C 87 % 1018,3 hPa 0,0 l/m 5,3 km/h (1 Bft) NO 0,00 h 22 W/m 3,0 C 4,8 C 13,1 km/h (3 Bft)
18.04.2020 08:00 6,4 C 81 % 1018,4 hPa 0,0 l/m 6,1 km/h (2 Bft) O-NO 0,00 h 36 W/m 3,4 C 6,2 C 14,0 km/h (3 Bft)
18.04.2020 09:00 8,3 C 71 % 1018,3 hPa 0,0 l/m 6,3 km/h (2 Bft) NO 0,50 h 223 W/m 3,5 C 8,1 C 14,5 km/h (3 Bft)
18.04.2020 10:00 11,7 C 62 % 1018,3 hPa 0,0 l/m 6,0 km/h (2 Bft) NO 1,00 h 556 W/m 4,6 C 11,4 C 13,8 km/h (3 Bft)
18.04.2020 11:00 14,0 C 55 % 1018,1 hPa 0,0 l/m 5,9 km/h (2 Bft) NO 1,00 h 663 W/m 5,1 C 13,6 C 12,7 km/h (3 Bft)
18.04.2020 12:00 15,2 C 48 % 1017,9 hPa 0,0 l/m 6,8 km/h (2 Bft) NO 1,00 h 641 W/m 4,3 C 14,8 C 14,3 km/h (3 Bft)
18.04.2020 13:00 16,3 C 45 % 1017,6 hPa 0,0 l/m 6,3 km/h (2 Bft) NO 1,00 h 758 W/m 4,5 C 16,1 C 14,8 km/h (3 Bft)
18.04.2020 14:00 17,2 C 42 % 1017,2 hPa 0,0 l/m 5,9 km/h (2 Bft) NO 1,00 h 700 W/m 4,2 C 17,1 C 13,2 km/h (3 Bft)
18.04.2020 15:00 17,7 C 40 % 1016,9 hPa 0,0 l/m 6,3 km/h (2 Bft) NO 1,00 h 660 W/m 3,8 C 17,4 C 13,0 km/h (3 Bft)
18.04.2020 16:00 18,1 C 38 % 1016,6 hPa 0,0 l/m 5,3 km/h (1 Bft) O-NO 1,00 h 550 W/m 3,7 C 18,0 C 12,3 km/h (2 Bft)
18.04.2020 17:00 17,8 C 35 % 1016,6 hPa 0,0 l/m 4,2 km/h (1 Bft) NO 1,00 h 409 W/m 2,3 C 17,8 C 11,5 km/h (2 Bft)
18.04.2020 18:00 16,5 C 43 % 1016,7 hPa 0,0 l/m 4,8 km/h (1 Bft) O-NO 0,80 h 214 W/m 3,7 C 16,5 C 12,4 km/h (2 Bft)
18.04.2020 19:00 13,7 C 52 % 1016,9 hPa 0,0 l/m 3,2 km/h (1 Bft) N-NO 0,00 h 25 W/m 3,9 C 13,7 C 8,9 km/h (2 Bft)
18.04.2020 20:00 11,5 C 58 % 1017,3 hPa 0,0 l/m 1,3 km/h (1 Bft) NO 0,00 h 9 W/m 3,6 C 11,5 C 6,7 km/h (2 Bft)
18.04.2020 21:00 10,1 C 65 % 1018,1 hPa 0,0 l/m 0,5 km/h (0 Bft) N-NO 0,00 h 0 W/m 3,7 C 10,1 C 6,3 km/h (2 Bft)
18.04.2020 22:00 9,0 C 67 % 1018,4 hPa 0,0 l/m 0,4 km/h (0 Bft) N 0,00 h 0 W/m 3,2 C 9,0 C 4,2 km/h (1 Bft)
18.04.2020 23:00 8,2 C 68 % 1018,6 hPa 0,0 l/m 1,0 km/h (0 Bft) NO 0,00 h 0 W/m 2,7 C 8,2 C 7,1 km/h (2 Bft)
19.04.2020 00:00 7,6 C 70 % 1019,0 hPa 0,0 l/m 0,7 km/h (0 Bft) N-NO 0,00 h 0 W/m 2,5 C 7,6 C 7,2 km/h (2 Bft)
19.04.2020 01:00 7,0 C 73 % 1019,5 hPa 0,0 l/m 0,5 km/h (0 Bft) NO 0,00 h 0 W/m 2,6 C 7,0 C 4,8 km/h (1 Bft)
19.04.2020 02:00 6,4 C 75 % 1019,9 hPa 0,0 l/m 0,2 km/h (0 Bft) N-NO 0,00 h 0 W/m 2,3 C 6,4 C 3,3 km/h (1 Bft)
19.04.2020 03:00 5,7 C 78 % 1020,0 hPa 0,0 l/m 0,1 km/h (0 Bft) N 0,00 h 0 W/m 2,2 C 5,7 C 2,0 km/h (1 Bft)
19.04.2020 04:00 5,1 C 80 % 1020,3 hPa 0,0 l/m 0,0 km/h (0 Bft) N 0,00 h 0 W/m 2,0 C 5,1 C 0,6 km/h (0 Bft)
19.04.2020 05:00 4,4 C 83 % 1020,5 hPa 0,0 l/m 0,2 km/h (0 Bft) N 0,00 h 0 W/m 1,7 C 4,4 C 2,6 km/h (1 Bft)
19.04.2020 06:00 4,2 C 86 % 1020,9 hPa 0,0 l/m 0,6 km/h (0 Bft) NO 0,00 h 9 W/m 2,1 C 4,2 C 3,5 km/h (1 Bft)
19.04.2020 07:00 4,7 C 89 % 1021,6 hPa 0,0 l/m 2,1 km/h (1 Bft) NO 0,00 h 21 W/m 2,9 C 4,7 C 7,0 km/h (2 Bft)
19.04.2020 08:00 5,8 C 89 % 1022,2 hPa 0,0 l/m 2,1 km/h (1 Bft) NO 0,00 h 30 W/m 4,1 C 5,8 C 6,7 km/h (2 Bft)
19.04.2020 09:00 7,7 C 84 % 1022,4 hPa 0,0 l/m 1,4 km/h (1 Bft) N-NO 0,50 h 220 W/m 5,1 C 7,7 C 8,5 km/h (2 Bft)
19.04.2020 10:00 11,5 C 62 % 1022,5 hPa 0,0 l/m 1,8 km/h (1 Bft) NO 1,00 h 570 W/m 4,4 C 11,5 C 9,2 km/h (2 Bft)
19.04.2020 11:00 13,5 C 46 % 1022,7 hPa 0,0 l/m 5,0 km/h (1 Bft) NO 1,00 h 675 W/m 2,1 C 13,2 C 15,7 km/h (3 Bft)
19.04.2020 12:00 14,3 C 42 % 1022,9 hPa 0,0 l/m 7,1 km/h (2 Bft) NO 1,00 h 649 W/m 1,4 C 13,6 C 19,4 km/h (3 Bft)
19.04.2020 13:00 15,2 C 40 % 1022,9 hPa 0,0 l/m 6,5 km/h (2 Bft) NO 1,00 h 770 W/m 1,6 C 14,9 C 18,8 km/h (3 Bft)
19.04.2020 14:00 15,8 C 37 % 1023,0 hPa 0,0 l/m 6,4 km/h (2 Bft) NO 1,00 h 714 W/m 1,0 C 15,5 C 18,5 km/h (3 Bft)
19.04.2020 15:00 15,8 C 38 % 1023,1 hPa 0,0 l/m 6,8 km/h (2 Bft) NO 1,00 h 666 W/m 1,3 C 15,2 C 19,5 km/h (3 Bft)
19.04.2020 16:00 15,6 C 37 % 1023,0 hPa 0,0 l/m 6,9 km/h (2 Bft) NO 1,00 h 555 W/m 1,1 C 15,1 C 17,3 km/h (3 Bft)
19.04.2020 17:00 15,1 C 38 % 1022,9 hPa 0,0 l/m 6,0 km/h (2 Bft) O-NO 1,00 h 412 W/m 0,8 C 14,9 C 15,4 km/h (3 Bft)
19.04.2020 18:00 13,7 C 37 % 1022,8 hPa 0,0 l/m 6,4 km/h (2 Bft) NO 0,75 h 215 W/m -0,5 C 13,4 C 16,6 km/h (3 Bft)
19.04.2020 19:00 12,0 C 48 % 1022,9 hPa 0,0 l/m 5,1 km/h (1 Bft) NO 0,00 h 24 W/m 1,2 C 11,9 C 14,5 km/h (3 Bft)
19.04.2020 20:00 10,2 C 53 % 1023,4 hPa 0,0 l/m 5,9 km/h (2 Bft) NO 0,00 h 10 W/m 1,0 C 10,1 C 14,7 km/h (3 Bft)
19.04.2020 21:00 8,9 C 57 % 1023,9 hPa 0,0 l/m 3,7 km/h (1 Bft) NO 0,00 h 0 W/m 0,9 C 8,9 C 11,7 km/h (2 Bft)
19.04.2020 22:00 8,1 C 61 % 1024,4 hPa 0,0 l/m 0,8 km/h (0 Bft) NO 0,00 h 0 W/m 1,0 C 8,1 C 6,7 km/h (2 Bft)
19.04.2020 23:00 7,3 C 63 % 1024,9 hPa 0,0 l/m 0,9 km/h (0 Bft) NO 0,00 h 0 W/m 0,7 C 7,3 C 7,2 km/h (2 Bft)
Min-Datum _ 19.04.20 18.04.20 13.04.20 - 17.04.20 - - - 13.04.20 13.04.20 17.04.20
_ Min-Zeit 06:27 17:42 00:00 - 22:30 - - - 07:24 23:12 22:30
Minimum _ 4,1 C 33 % 1012,3 hPa - 0,0 km/h (0 Bft) - - - -1,5 C -4,8 C 0,0 km/h (0 Bft)
Max-Datum _ 18.04.20 16.04.20 19.04.20 13.04.20 13.04.20 - 15.04.20 14.04.20 16.04.20 18.04.20 13.04.20
_ Max-Zeit 16:33 08:21 23:51 00:00 10:00 - 14:03 12:57 15:06 16:33 05:33
Maximum _ 18,3 C 91 % 1025,2 hPa 0,0 l/m 30,6 km/h
N-NW (5 Bft)
- 0,10 h 923 W/m 9,2 C 18,3 C 54,7 km/h
NW (7 Bft)
Durchschnitt _ 9,1 C 70 % 1019,4 hPa #0,0 l/m 9,7 km/h (2 Bft) N-NW #53:24 h 321 W/m 3,6 C 6,5 C 18,5 km/h (3 Bft)
2020 Cux-Wetter.de -Die Nutzung der Wetterdaten nur mit ausdrcklicher Genehmigung